sensor_id;sensor_type;location;lat;lon;timestamp;pressure;altitude;pressure_sealevel;temperature;humidity
28665;BME280;15850;47.524;7.814;2023-05-22T00:02:16;97426.63;;;14.73;100.00
28665;BME280;15850;47.524;7.814;2023-05-22T00:04:41;97449.66;;;14.99;100.00
28665;BME280;15850;47.524;7.814;2023-05-22T00:07:07;97033.78;;;12.38;100.00
28665;BME280;15850;47.524;7.814;2023-05-22T00:09:33;97231.72;;;13.47;100.00
28665;BME280;15850;47.524;7.814;2023-05-22T00:11:58;97397.19;;;14.40;100.00
28665;BME280;15850;47.524;7.814;2023-05-22T00:14:24;97315.75;;;13.77;100.00
28665;BME280;15850;47.524;7.814;2023-05-22T00:16:51;97352.66;;;13.90;100.00
28665;BME280;15850;47.524;7.814;2023-05-22T00:19:16;97396.31;;;14.32;100.00
28665;BME280;15850;47.524;7.814;2023-05-22T00:21:43;97214.88;;;13.19;100.00
28665;BME280;15850;47.524;7.814;2023-05-22T00:24:08;97144.84;;;12.84;100.00
28665;BME280;15850;47.524;7.814;2023-05-22T00:26:34;97404.53;;;14.59;100.00
28665;BME280;15850;47.524;7.814;2023-05-22T00:28:59;97150.97;;;12.77;100.00
28665;BME280;15850;47.524;7.814;2023-05-22T00:31:25;97419.22;;;14.47;100.00
28665;BME280;15850;47.524;7.814;2023-05-22T00:33:52;97068.97;;;12.24;100.00
28665;BME280;15850;47.524;7.814;2023-05-22T00:36:18;97054.06;;;12.18;100.00
28665;BME280;15850;47.524;7.814;2023-05-22T00:38:43;96977.13;;;11.63;100.00
28665;BME280;15850;47.524;7.814;2023-05-22T00:41:09;97012.88;;;11.81;100.00
28665;BME280;15850;47.524;7.814;2023-05-22T00:43:38;97418.84;;;14.22;100.00
28665;BME280;15850;47.524;7.814;2023-05-22T00:46:03;97369.47;;;13.66;100.00
28665;BME280;15850;47.524;7.814;2023-05-22T00:48:29;97400.16;;;13.78;100.00
28665;BME280;15850;47.524;7.814;2023-05-22T00:50:57;97383.88;;;13.62;100.00
28665;BME280;15850;47.524;7.814;2023-05-22T00:53:25;97403.72;;;14.05;100.00
28665;BME280;15850;47.524;7.814;2023-05-22T00:55:53;97414.28;;;14.07;100.00
28665;BME280;15850;47.524;7.814;2023-05-22T00:58:19;97311.97;;;13.35;100.00
28665;BME280;15850;47.524;7.814;2023-05-22T01:00:45;97412.84;;;13.90;100.00
28665;BME280;15850;47.524;7.814;2023-05-22T01:03:11;97411.94;;;13.82;100.00
28665;BME280;15850;47.524;7.814;2023-05-22T01:05:38;97416.78;;;13.70;100.00
28665;BME280;15850;47.524;7.814;2023-05-22T01:08:06;97065.44;;;11.42;100.00
28665;BME280;15850;47.524;7.814;2023-05-22T01:10:33;97318.63;;;12.96;100.00
28665;BME280;15850;47.524;7.814;2023-05-22T01:13:05;96927.91;;;10.39;100.00
28665;BME280;15850;47.524;7.814;2023-05-22T01:15:37;96915.44;;;10.22;100.00
28665;BME280;15850;47.524;7.814;2023-05-22T01:18:11;96657.09;;;8.30;100.00
28665;BME280;15850;47.524;7.814;2023-05-22T01:20:41;97081.34;;;11.05;100.00
28665;BME280;15850;47.524;7.814;2023-05-22T01:23:30;97092.91;;;11.18;100.00
28665;BME280;15850;47.524;7.814;2023-05-22T01:26:12;97284.44;;;12.24;100.00
28665;BME280;15850;47.524;7.814;2023-05-22T01:29:06;96779.09;;;9.18;100.00
28665;BME280;15850;47.524;7.814;2023-05-22T01:31:38;96758.94;;;9.03;100.00
28665;BME280;15850;47.524;7.814;2023-05-22T01:34:07;96725.69;;;8.75;100.00
28665;BME280;15850;47.524;7.814;2023-05-22T01:36:35;96799.50;;;9.12;100.00
28665;BME280;15850;47.524;7.814;2023-05-22T01:39:02;97313.94;;;12.38;100.00
28665;BME280;15850;47.524;7.814;2023-05-22T01:41:28;97408.50;;;13.04;100.00
28665;BME280;15850;47.524;7.814;2023-05-22T01:43:54;97302.97;;;12.34;100.00
28665;BME280;15850;47.524;7.814;2023-05-22T01:46:20;96947.03;;;10.11;100.00
28665;BME280;15850;47.524;7.814;2023-05-22T01:48:51;96746.00;;;8.81;100.00
28665;BME280;15850;47.524;7.814;2023-05-22T01:51:19;96993.44;;;10.34;100.00
28665;BME280;15850;47.524;7.814;2023-05-22T01:53:52;97254.34;;;12.01;100.00
28665;BME280;15850;47.524;7.814;2023-05-22T01:56:23;97000.16;;;10.24;100.00
28665;BME280;15850;47.524;7.814;2023-05-22T01:58:54;97150.09;;;11.18;100.00
28665;BME280;15850;47.524;7.814;2023-05-22T02:01:21;96694.03;;;7.94;100.00
28665;BME280;15850;47.524;7.814;2023-05-22T02:03:54;97359.19;;;12.39;100.00
28665;BME280;15850;47.524;7.814;2023-05-22T02:06:21;97048.41;;;10.59;100.00
28665;BME280;15850;47.524;7.814;2023-05-22T02:08:48;96937.94;;;9.87;100.00
28665;BME280;15850;47.524;7.814;2023-05-22T02:11:15;97151.31;;;11.36;100.00
28665;BME280;15850;47.524;7.814;2023-05-22T02:13:41;97414.19;;;13.15;100.00
28665;BME280;15850;47.524;7.814;2023-05-22T02:16:08;97231.53;;;11.74;100.00
28665;BME280;15850;47.524;7.814;2023-05-22T02:18:34;97297.06;;;12.13;100.00
28665;BME280;15850;47.524;7.814;2023-05-22T02:21:01;96940.44;;;9.64;100.00
28665;BME280;15850;47.524;7.814;2023-05-22T02:23:29;96998.59;;;10.07;100.00
28665;BME280;15850;47.524;7.814;2023-05-22T02:25:55;96883.75;;;9.31;100.00
28665;BME280;15850;47.524;7.814;2023-05-22T02:28:21;96999.38;;;10.24;100.00
28665;BME280;15850;47.524;7.814;2023-05-22T02:30:47;96740.34;;;8.58;100.00
28665;BME280;15850;47.524;7.814;2023-05-22T02:33:12;96744.44;;;8.52;100.00
28665;BME280;15850;47.524;7.814;2023-05-22T02:35:38;96971.84;;;10.09;100.00
28665;BME280;15850;47.524;7.814;2023-05-22T02:38:05;96877.59;;;9.50;100.00
28665;BME280;15850;47.524;7.814;2023-05-22T02:40:32;96753.19;;;8.45;100.00
28665;BME280;15850;47.524;7.814;2023-05-22T02:42:57;97151.63;;;10.99;100.00
28665;BME280;15850;47.524;7.814;2023-05-22T02:45:23;97010.09;;;10.17;100.00
28665;BME280;15850;47.524;7.814;2023-05-22T02:47:49;96738.50;;;8.34;100.00
28665;BME280;15850;47.524;7.814;2023-05-22T02:50:15;96718.00;;;8.20;100.00
28665;BME280;15850;47.524;7.814;2023-05-22T02:52:41;97032.31;;;10.06;100.00
28665;BME280;15850;47.524;7.814;2023-05-22T02:55:09;96769.19;;;8.50;100.00
28665;BME280;15850;47.524;7.814;2023-05-22T02:57:34;97185.22;;;11.23;100.00
28665;BME280;15850;47.524;7.814;2023-05-22T03:00:00;97017.63;;;10.07;100.00
28665;BME280;15850;47.524;7.814;2023-05-22T03:02:26;97213.50;;;11.18;100.00
28665;BME280;15850;47.524;7.814;2023-05-22T03:04:52;97085.72;;;10.27;100.00
28665;BME280;15850;47.524;7.814;2023-05-22T03:07:17;97126.78;;;10.85;100.00
28665;BME280;15850;47.524;7.814;2023-05-22T03:09:43;97128.53;;;10.93;100.00
28665;BME280;15850;47.524;7.814;2023-05-22T03:12:10;96971.13;;;9.81;100.00
28665;BME280;15850;47.524;7.814;2023-05-22T03:14:36;97041.28;;;10.23;100.00
28665;BME280;15850;47.524;7.814;2023-05-22T03:17:02;97038.69;;;10.42;100.00
28665;BME280;15850;47.524;7.814;2023-05-22T03:19:27;96804.47;;;8.66;100.00
28665;BME280;15850;47.524;7.814;2023-05-22T03:21:53;97413.81;;;12.97;100.00
28665;BME280;15850;47.524;7.814;2023-05-22T03:24:20;97190.13;;;11.33;100.00
28665;BME280;15850;47.524;7.814;2023-05-22T03:26:46;97439.53;;;12.77;100.00
28665;BME280;15850;47.524;7.814;2023-05-22T03:29:19;97358.19;;;12.47;100.00
28665;BME280;15850;47.524;7.814;2023-05-22T03:31:45;97089.03;;;10.36;100.00
28665;BME280;15850;47.524;7.814;2023-05-22T03:34:13;96769.44;;;8.33;100.00
28665;BME280;15850;47.524;7.814;2023-05-22T03:36:40;97214.91;;;11.28;100.00
28665;BME280;15850;47.524;7.814;2023-05-22T03:39:06;97431.41;;;12.80;100.00
28665;BME280;15850;47.524;7.814;2023-05-22T03:41:36;97419.13;;;12.70;100.00
28665;BME280;15850;47.524;7.814;2023-05-22T03:44:02;97383.81;;;12.42;100.00
28665;BME280;15850;47.524;7.814;2023-05-22T03:46:29;97423.53;;;12.75;100.00
28665;BME280;15850;47.524;7.814;2023-05-22T03:48:55;97419.13;;;12.70;100.00
28665;BME280;15850;47.524;7.814;2023-05-22T03:51:20;97419.50;;;12.69;100.00
28665;BME280;15850;47.524;7.814;2023-05-22T03:53:46;97416.69;;;12.65;100.00
28665;BME280;15850;47.524;7.814;2023-05-22T03:56:13;97099.31;;;10.58;100.00
28665;BME280;15850;47.524;7.814;2023-05-22T03:58:38;97426.72;;;12.61;100.00
28665;BME280;15850;47.524;7.814;2023-05-22T04:01:04;97420.31;;;12.54;100.00
28665;BME280;15850;47.524;7.814;2023-05-22T04:03:31;97430.19;;;12.58;100.00
28665;BME280;15850;47.524;7.814;2023-05-22T04:05:57;97159.50;;;10.89;100.00
28665;BME280;15850;47.524;7.814;2023-05-22T04:08:22;97310.66;;;11.93;100.00
28665;BME280;15850;47.524;7.814;2023-05-22T04:10:48;97418.53;;;12.61;100.00
28665;BME280;15850;47.524;7.814;2023-05-22T04:13:15;97356.13;;;12.25;100.00
28665;BME280;15850;47.524;7.814;2023-05-22T04:15:41;97425.81;;;12.73;100.00
28665;BME280;15850;47.524;7.814;2023-05-22T04:18:07;97088.16;;;10.48;100.00
28665;BME280;15850;47.524;7.814;2023-05-22T04:20:34;97231.75;;;11.49;100.00
28665;BME280;15850;47.524;7.814;2023-05-22T04:22:59;97213.66;;;11.41;100.00
28665;BME280;15850;47.524;7.814;2023-05-22T04:25:25;97442.00;;;12.82;100.00
28665;BME280;15850;47.524;7.814;2023-05-22T04:27:51;97447.09;;;12.83;100.00
28665;BME280;15850;47.524;7.814;2023-05-22T04:30:18;97181.28;;;11.20;100.00
28665;BME280;15850;47.524;7.814;2023-05-22T04:32:43;97374.84;;;12.61;100.00
28665;BME280;15850;47.524;7.814;2023-05-22T04:35:09;97232.75;;;11.92;100.00
28665;BME280;15850;47.524;7.814;2023-05-22T04:37:36;97135.25;;;11.50;100.00
28665;BME280;15850;47.524;7.814;2023-05-22T04:40:02;97401.22;;;13.28;100.00
28665;BME280;15850;47.524;7.814;2023-05-22T04:42:28;97454.72;;;13.71;100.00
28665;BME280;15850;47.524;7.814;2023-05-22T04:44:55;97452.94;;;13.82;100.00
28665;BME280;15850;47.524;7.814;2023-05-22T04:47:20;97445.59;;;13.86;100.00
28665;BME280;15850;47.524;7.814;2023-05-22T04:49:46;97415.72;;;13.74;100.00
28665;BME280;15850;47.524;7.814;2023-05-22T04:52:12;97429.19;;;13.86;100.00
28665;BME280;15850;47.524;7.814;2023-05-22T04:54:38;97427.63;;;13.85;100.00
28665;BME280;15850;47.524;7.814;2023-05-22T04:57:04;97388.94;;;13.64;100.00
28665;BME280;15850;47.524;7.814;2023-05-22T04:59:30;97232.66;;;12.66;100.00
28665;BME280;15850;47.524;7.814;2023-05-22T05:01:56;97460.53;;;14.39;100.00
28665;BME280;15850;47.524;7.814;2023-05-22T05:04:23;97363.38;;;13.76;100.00
28665;BME280;15850;47.524;7.814;2023-05-22T05:06:49;97411.06;;;14.24;100.00
28665;BME280;15850;47.524;7.814;2023-05-22T05:09:14;97369.56;;;13.96;100.00
28665;BME280;15850;47.524;7.814;2023-05-22T05:11:41;97385.78;;;14.08;100.00
28665;BME280;15850;47.524;7.814;2023-05-22T05:14:07;97470.44;;;14.73;100.00
28665;BME280;15850;47.524;7.814;2023-05-22T05:16:33;97463.97;;;14.85;100.00
28665;BME280;15850;47.524;7.814;2023-05-22T05:18:58;97135.88;;;12.83;100.00
28665;BME280;15850;47.524;7.814;2023-05-22T05:21:24;97432.66;;;14.86;100.00
28665;BME280;15850;47.524;7.814;2023-05-22T05:23:49;97465.50;;;15.13;100.00
28665;BME280;15850;47.524;7.814;2023-05-22T05:26:16;97035.84;;;12.45;100.00
28665;BME280;15850;47.524;7.814;2023-05-22T05:28:42;97469.31;;;15.35;100.00
28665;BME280;15850;47.524;7.814;2023-05-22T05:31:08;97430.69;;;15.13;100.00
28665;BME280;15850;47.524;7.814;2023-05-22T05:34:06;97439.72;;;15.17;100.00
28665;BME280;15850;47.524;7.814;2023-05-22T05:36:56;97397.75;;;14.79;100.00
28665;BME280;15850;47.524;7.814;2023-05-22T05:39:22;97424.88;;;15.18;100.00
28665;BME280;15850;47.524;7.814;2023-05-22T05:41:47;97455.34;;;15.47;100.00
28665;BME280;15850;47.524;7.814;2023-05-22T05:44:15;97453.50;;;15.58;100.00
28665;BME280;15850;47.524;7.814;2023-05-22T05:46:41;97455.63;;;15.72;100.00
28665;BME280;15850;47.524;7.814;2023-05-22T05:49:08;97459.69;;;15.85;100.00
28665;BME280;15850;47.524;7.814;2023-05-22T05:51:33;97426.63;;;15.71;100.00
28665;BME280;15850;47.524;7.814;2023-05-22T05:53:59;97461.72;;;15.92;100.00
28665;BME280;15850;47.524;7.814;2023-05-22T05:56:25;97412.06;;;15.63;100.00
28665;BME280;15850;47.524;7.814;2023-05-22T05:58:50;97427.16;;;15.84;100.00
28665;BME280;15850;47.524;7.814;2023-05-22T06:01:49;97466.50;;;16.02;100.00
28665;BME280;15850;47.524;7.814;2023-05-22T06:04:21;97432.38;;;15.96;100.00
28665;BME280;15850;47.524;7.814;2023-05-22T06:06:48;97471.78;;;16.21;100.00
28665;BME280;15850;47.524;7.814;2023-05-22T06:09:14;97201.13;;;14.55;100.00
28665;BME280;15850;47.524;7.814;2023-05-22T06:12:09;97447.56;;;16.34;100.00
28665;BME280;15850;47.524;7.814;2023-05-22T06:14:35;97479.06;;;16.51;100.00
28665;BME280;15850;47.524;7.814;2023-05-22T06:17:02;97399.03;;;15.94;100.00
28665;BME280;15850;47.524;7.814;2023-05-22T06:19:27;97415.69;;;16.19;100.00
28665;BME280;15850;47.524;7.814;2023-05-22T06:21:53;97485.59;;;16.84;100.00
28665;BME280;15850;47.524;7.814;2023-05-22T06:24:19;97220.50;;;15.14;100.00
28665;BME280;15850;47.524;7.814;2023-05-22T06:26:45;97454.13;;;16.74;100.00
28665;BME280;15850;47.524;7.814;2023-05-22T06:29:11;97486.16;;;17.11;100.00
28665;BME280;15850;47.524;7.814;2023-05-22T06:31:36;97388.50;;;16.58;100.00
28665;BME280;15850;47.524;7.814;2023-05-22T06:34:03;97217.66;;;15.51;100.00
28665;BME280;15850;47.524;7.814;2023-05-22T06:36:29;97429.59;;;17.03;100.00
28665;BME280;15850;47.524;7.814;2023-05-22T06:38:54;97356.78;;;16.72;100.00
28665;BME280;15850;47.524;7.814;2023-05-22T06:41:43;97454.38;;;17.21;100.00
28665;BME280;15850;47.524;7.814;2023-05-22T06:44:11;97479.16;;;17.28;100.00
28665;BME280;15850;47.524;7.814;2023-05-22T06:46:38;97467.06;;;17.50;100.00
28665;BME280;15850;47.524;7.814;2023-05-22T06:49:05;97452.22;;;17.73;100.00
28665;BME280;15850;47.524;7.814;2023-05-22T06:51:39;97449.50;;;17.87;100.00
28665;BME280;15850;47.524;7.814;2023-05-22T06:54:08;97279.19;;;16.85;100.00
28665;BME280;15850;47.524;7.814;2023-05-22T06:56:35;97441.66;;;17.78;100.00
28665;BME280;15850;47.524;7.814;2023-05-22T06:59:04;97434.56;;;17.81;100.00
28665;BME280;15850;47.524;7.814;2023-05-22T07:01:49;97467.63;;;18.20;100.00
28665;BME280;15850;47.524;7.814;2023-05-22T07:04:21;97421.22;;;17.97;100.00
28665;BME280;15850;47.524;7.814;2023-05-22T07:06:53;97466.06;;;18.34;100.00
28665;BME280;15850;47.524;7.814;2023-05-22T07:09:20;97468.03;;;18.33;100.00
28665;BME280;15850;47.524;7.814;2023-05-22T07:11:47;97237.56;;;16.87;100.00
28665;BME280;15850;47.524;7.814;2023-05-22T07:14:14;97374.41;;;17.87;100.00
28665;BME280;15850;47.524;7.814;2023-05-22T07:16:41;97347.69;;;17.83;100.00
28665;BME280;15850;47.524;7.814;2023-05-22T07:19:06;97321.31;;;17.47;100.00
28665;BME280;15850;47.524;7.814;2023-05-22T07:21:34;97345.72;;;17.88;100.00
28665;BME280;15850;47.524;7.814;2023-05-22T07:24:00;97471.97;;;18.68;100.00
28665;BME280;15850;47.524;7.814;2023-05-22T07:26:26;97479.84;;;18.76;100.00
28665;BME280;15850;47.524;7.814;2023-05-22T07:29:00;97479.81;;;18.91;100.00
28665;BME280;15850;47.524;7.814;2023-05-22T07:31:26;97480.97;;;19.04;100.00
28665;BME280;15850;47.524;7.814;2023-05-22T07:33:53;97477.44;;;18.96;100.00
28665;BME280;15850;47.524;7.814;2023-05-22T07:36:19;97486.47;;;19.00;100.00
28665;BME280;15850;47.524;7.814;2023-05-22T07:38:46;97278.91;;;17.80;100.00
28665;BME280;15850;47.524;7.814;2023-05-22T07:41:12;97477.75;;;19.20;100.00
28665;BME280;15850;47.524;7.814;2023-05-22T07:43:37;97444.75;;;18.95;100.00
28665;BME280;15850;47.524;7.814;2023-05-22T07:46:04;97448.59;;;19.26;100.00
28665;BME280;15850;47.524;7.814;2023-05-22T07:48:35;97379.41;;;18.92;100.00
28665;BME280;15850;47.524;7.814;2023-05-22T07:51:00;97480.75;;;19.61;100.00
28665;BME280;15850;47.524;7.814;2023-05-22T07:53:26;97474.91;;;19.48;100.00
28665;BME280;15850;47.524;7.814;2023-05-22T07:55:56;97400.22;;;19.11;100.00
28665;BME280;15850;47.524;7.814;2023-05-22T07:58:22;97367.47;;;19.16;100.00
28665;BME280;15850;47.524;7.814;2023-05-22T08:00:48;97428.69;;;19.70;100.00
28665;BME280;15850;47.524;7.814;2023-05-22T08:03:13;97477.00;;;20.04;100.00
28665;BME280;15850;47.524;7.814;2023-05-22T08:05:39;97423.06;;;19.88;100.00
28665;BME280;15850;47.524;7.814;2023-05-22T08:08:04;97472.88;;;20.26;100.00
28665;BME280;15850;47.524;7.814;2023-05-22T08:10:30;97410.53;;;19.73;100.00
28665;BME280;15850;47.524;7.814;2023-05-22T08:12:57;97129.09;;;17.99;100.00
28665;BME280;15850;47.524;7.814;2023-05-22T08:15:22;97458.38;;;20.15;100.00
28665;BME280;15850;47.524;7.814;2023-05-22T08:17:48;97155.38;;;18.11;100.00
28665;BME280;15850;47.524;7.814;2023-05-22T08:20:13;97388.03;;;19.78;100.00
28665;BME280;15850;47.524;7.814;2023-05-22T08:22:39;97061.97;;;17.60;100.00
28665;BME280;15850;47.524;7.814;2023-05-22T08:25:05;97257.28;;;19.02;100.00
28665;BME280;15850;47.524;7.814;2023-05-22T08:27:30;97409.19;;;19.95;99.91
28665;BME280;15850;47.524;7.814;2023-05-22T08:29:57;97460.56;;;20.38;100.00
28665;BME280;15850;47.524;7.814;2023-05-22T08:32:23;97206.56;;;18.89;97.70
28665;BME280;15850;47.524;7.814;2023-05-22T08:34:48;97450.22;;;20.46;95.11
28665;BME280;15850;47.524;7.814;2023-05-22T08:37:14;97418.22;;;20.48;97.43
28665;BME280;15850;47.524;7.814;2023-05-22T08:39:39;97452.44;;;20.65;96.61
28665;BME280;15850;47.524;7.814;2023-05-22T08:42:05;97459.19;;;20.64;96.37
28665;BME280;15850;47.524;7.814;2023-05-22T08:44:30;97390.25;;;20.42;98.05
28665;BME280;15850;47.524;7.814;2023-05-22T08:47:00;97423.31;;;20.57;93.32
28665;BME280;15850;47.524;7.814;2023-05-22T08:49:26;97383.63;;;20.36;100.00
28665;BME280;15850;47.524;7.814;2023-05-22T08:51:55;97269.50;;;20.02;91.46
28665;BME280;15850;47.524;7.814;2023-05-22T08:54:25;97449.88;;;21.23;83.91
28665;BME280;15850;47.524;7.814;2023-05-22T08:56:51;97348.38;;;20.48;84.25
28665;BME280;15850;47.524;7.814;2023-05-22T08:59:18;97446.75;;;21.17;86.05
28665;BME280;15850;47.524;7.814;2023-05-22T09:01:44;97390.66;;;20.82;86.99
28665;BME280;15850;47.524;7.814;2023-05-22T09:04:12;97239.38;;;19.80;85.65
28665;BME280;15850;47.524;7.814;2023-05-22T09:06:38;97445.97;;;21.51;89.12
28665;BME280;15850;47.524;7.814;2023-05-22T09:09:03;97449.84;;;21.57;79.34
28665;BME280;15850;47.524;7.814;2023-05-22T09:11:29;97447.53;;;21.52;78.12
28665;BME280;15850;47.524;7.814;2023-05-22T09:14:05;97410.56;;;21.39;77.54
28665;BME280;15850;47.524;7.814;2023-05-22T09:16:31;97394.94;;;21.21;77.96
28665;BME280;15850;47.524;7.814;2023-05-22T09:18:56;97412.88;;;21.44;83.89
28665;BME280;15850;47.524;7.814;2023-05-22T09:21:26;97279.59;;;20.57;80.09
28665;BME280;15850;47.524;7.814;2023-05-22T09:23:52;97439.69;;;21.77;77.03
28665;BME280;15850;47.524;7.814;2023-05-22T09:26:17;97382.03;;;21.72;78.63
28665;BME280;15850;47.524;7.814;2023-05-22T09:28:43;97448.00;;;22.04;75.63
28665;BME280;15850;47.524;7.814;2023-05-22T09:31:08;97426.31;;;21.72;78.05
28665;BME280;15850;47.524;7.814;2023-05-22T09:33:35;97246.66;;;20.35;81.75
28665;BME280;15850;47.524;7.814;2023-05-22T09:36:00;97436.81;;;21.85;78.41
28665;BME280;15850;47.524;7.814;2023-05-22T09:38:28;97438.03;;;21.84;76.58
28665;BME280;15850;47.524;7.814;2023-05-22T09:40:55;97418.53;;;21.91;76.91
28665;BME280;15850;47.524;7.814;2023-05-22T09:43:22;97424.38;;;21.96;71.32
28665;BME280;15850;47.524;7.814;2023-05-22T09:45:48;97445.28;;;22.01;71.37
28665;BME280;15850;47.524;7.814;2023-05-22T09:48:17;97047.19;;;19.56;72.29
28665;BME280;15850;47.524;7.814;2023-05-22T09:50:46;97459.50;;;22.03;72.66
28665;BME280;15850;47.524;7.814;2023-05-22T09:53:17;96833.38;;;18.03;69.26
28665;BME280;15850;47.524;7.814;2023-05-22T09:55:46;97353.53;;;21.45;70.00
28665;BME280;15850;47.524;7.814;2023-05-22T09:58:12;97411.09;;;22.11;67.63
28665;BME280;15850;47.524;7.814;2023-05-22T10:00:45;97433.53;;;21.93;64.89
28665;BME280;15850;47.524;7.814;2023-05-22T10:03:12;97059.78;;;19.60;65.45
28665;BME280;15850;47.524;7.814;2023-05-22T10:05:42;97068.06;;;19.94;66.47
28665;BME280;15850;47.524;7.814;2023-05-22T10:08:13;97434.03;;;22.39;64.12
28665;BME280;15850;47.524;7.814;2023-05-22T10:10:48;97419.22;;;22.49;60.36
28665;BME280;15850;47.524;7.814;2023-05-22T10:13:15;97124.28;;;20.38;58.17
28665;BME280;15850;47.524;7.814;2023-05-22T10:15:45;97441.50;;;22.42;63.73
28665;BME280;15850;47.524;7.814;2023-05-22T10:18:17;97216.41;;;20.90;63.08
28665;BME280;15850;47.524;7.814;2023-05-22T10:20:44;97234.75;;;21.30;61.04
28665;BME280;15850;47.524;7.814;2023-05-22T10:23:13;97246.19;;;21.32;64.57
28665;BME280;15850;47.524;7.814;2023-05-22T10:25:39;97079.91;;;20.49;65.33
28665;BME280;15850;47.524;7.814;2023-05-22T10:28:07;97210.16;;;21.09;63.87
28665;BME280;15850;47.524;7.814;2023-05-22T10:30:40;97191.91;;;20.88;57.90
28665;BME280;15850;47.524;7.814;2023-05-22T10:33:28;97166.97;;;20.92;59.63
28665;BME280;15850;47.524;7.814;2023-05-22T10:36:00;97050.88;;;20.10;60.94
28665;BME280;15850;47.524;7.814;2023-05-22T10:38:49;97222.69;;;21.44;63.40
28665;BME280;15850;47.524;7.814;2023-05-22T10:41:17;97215.22;;;21.41;63.26
28665;BME280;15850;47.524;7.814;2023-05-22T10:43:49;97247.53;;;21.48;63.96
28665;BME280;15850;47.524;7.814;2023-05-22T10:46:16;97152.41;;;21.15;64.02
28665;BME280;15850;47.524;7.814;2023-05-22T10:48:50;97179.56;;;21.47;63.12
28665;BME280;15850;47.524;7.814;2023-05-22T10:51:19;97408.47;;;23.14;64.00
28665;BME280;15850;47.524;7.814;2023-05-22T10:54:05;97415.53;;;23.19;65.24
28665;BME280;15850;47.524;7.814;2023-05-22T10:56:35;97062.03;;;21.08;64.86
28665;BME280;15850;47.524;7.814;2023-05-22T10:59:10;97058.41;;;21.34;62.54
28665;BME280;15850;47.524;7.814;2023-05-22T11:01:39;97134.03;;;21.71;60.97
28665;BME280;15850;47.524;7.814;2023-05-22T11:04:24;97026.84;;;21.08;63.84
28665;BME280;15850;47.524;7.814;2023-05-22T11:07:01;97129.22;;;21.75;67.23
28665;BME280;15850;47.524;7.814;2023-05-22T11:09:28;97363.34;;;23.30;63.98
28665;BME280;15850;47.524;7.814;2023-05-22T11:12:15;97312.03;;;23.02;65.72
28665;BME280;15850;47.524;7.814;2023-05-22T11:14:47;97025.38;;;21.04;60.89
28665;BME280;15850;47.524;7.814;2023-05-22T11:17:19;97194.06;;;21.98;59.51
28665;BME280;15850;47.524;7.814;2023-05-22T11:19:48;97384.25;;;23.55;65.72
28665;BME280;15850;47.524;7.814;2023-05-22T11:22:21;97378.25;;;23.92;63.02
28665;BME280;15850;47.524;7.814;2023-05-22T11:24:46;97401.59;;;23.79;58.93
28665;BME280;15850;47.524;7.814;2023-05-22T11:27:12;97389.25;;;23.80;59.66
28665;BME280;15850;47.524;7.814;2023-05-22T11:29:40;97259.88;;;23.30;60.07
28665;BME280;15850;47.524;7.814;2023-05-22T11:32:07;97389.34;;;23.76;61.09
28665;BME280;15850;47.524;7.814;2023-05-22T11:34:38;97000.91;;;21.66;59.12
28665;BME280;15850;47.524;7.814;2023-05-22T11:37:03;97207.63;;;22.92;60.18
28665;BME280;15850;47.524;7.814;2023-05-22T11:39:31;97043.50;;;22.08;58.72
28665;BME280;15850;47.524;7.814;2023-05-22T11:41:57;97397.25;;;24.27;55.14
28665;BME280;15850;47.524;7.814;2023-05-22T11:44:26;97163.59;;;22.94;57.39
28665;BME280;15850;47.524;7.814;2023-05-22T11:46:54;97377.78;;;24.27;56.53
28665;BME280;15850;47.524;7.814;2023-05-22T11:49:21;97265.00;;;23.48;55.77
28665;BME280;15850;47.524;7.814;2023-05-22T11:51:47;96907.53;;;21.10;57.96
28665;BME280;15850;47.524;7.814;2023-05-22T11:54:16;97396.06;;;24.11;54.71
28665;BME280;15850;47.524;7.814;2023-05-22T11:56:43;97292.72;;;23.84;53.30
28665;BME280;15850;47.524;7.814;2023-05-22T11:59:08;97374.41;;;24.35;55.93
28665;BME280;15850;47.524;7.814;2023-05-22T12:01:34;97368.94;;;24.48;54.19
28665;BME280;15850;47.524;7.814;2023-05-22T12:04:00;97374.41;;;24.52;49.93
28665;BME280;15850;47.524;7.814;2023-05-22T12:06:27;96827.81;;;20.85;50.22
28665;BME280;15850;47.524;7.814;2023-05-22T12:08:53;96999.69;;;22.03;52.85
28665;BME280;15850;47.524;7.814;2023-05-22T12:11:19;97365.94;;;24.72;53.37
28665;BME280;15850;47.524;7.814;2023-05-22T12:13:49;97043.63;;;22.90;52.86
28665;BME280;15850;47.524;7.814;2023-05-22T12:16:24;97072.81;;;23.27;52.51
28665;BME280;15850;47.524;7.814;2023-05-22T12:18:51;96724.78;;;20.84;50.98
28665;BME280;15850;47.524;7.814;2023-05-22T12:21:17;97273.78;;;24.11;50.91
28665;BME280;15850;47.524;7.814;2023-05-22T12:23:48;97143.78;;;23.12;51.10
28665;BME280;15850;47.524;7.814;2023-05-22T12:26:19;96793.44;;;21.06;51.52
28665;BME280;15850;47.524;7.814;2023-05-22T12:28:45;97135.84;;;23.43;49.10
28665;BME280;15850;47.524;7.814;2023-05-22T12:31:19;96855.75;;;21.67;45.53
28665;BME280;15850;47.524;7.814;2023-05-22T12:33:44;96962.19;;;22.35;46.15
28665;BME280;15850;47.524;7.814;2023-05-22T12:36:10;97334.16;;;25.27;48.17
28665;BME280;15850;47.524;7.814;2023-05-22T12:38:36;97362.13;;;25.37;46.22
28665;BME280;15850;47.524;7.814;2023-05-22T12:41:07;96825.41;;;21.96;46.52
28665;BME280;15850;47.524;7.814;2023-05-22T12:43:32;96987.31;;;22.93;43.85
28665;BME280;15850;47.524;7.814;2023-05-22T12:45:58;97086.69;;;23.73;43.33
28665;BME280;15850;47.524;7.814;2023-05-22T12:48:24;97351.56;;;25.44;46.20
28665;BME280;15850;47.524;7.814;2023-05-22T12:50:50;97354.53;;;25.63;46.86
28665;BME280;15850;47.524;7.814;2023-05-22T12:53:15;97371.25;;;25.63;45.87
28665;BME280;15850;47.524;7.814;2023-05-22T12:55:41;97179.22;;;24.57;45.65
28665;BME280;15850;47.524;7.814;2023-05-22T12:58:08;97207.81;;;24.83;44.88
28665;BME280;15850;47.524;7.814;2023-05-22T13:00:34;96911.97;;;22.94;47.35